createdAt,value
2019-05-05T00:01:05.298Z,6.33
2019-05-05T00:03:36.048Z,9.95
2019-05-05T00:06:08.217Z,8.23
2019-05-05T00:08:37.312Z,10.95
2019-05-05T00:11:24.720Z,5.12
2019-05-05T00:14:00.050Z,5.87
2019-05-05T00:16:36.200Z,5.70
2019-05-05T00:19:05.520Z,6.45
2019-05-05T00:21:34.865Z,11.48
2019-05-05T00:24:04.676Z,8.35
2019-05-05T00:26:34.855Z,6.87
2019-05-05T00:29:04.451Z,8.40
2019-05-05T00:31:34.912Z,8.15
2019-05-05T00:34:05.015Z,5.22
2019-05-05T00:36:35.263Z,8.28
2019-05-05T00:39:06.995Z,6.20
2019-05-05T00:41:35.986Z,8.40
2019-05-05T00:44:05.272Z,13.78
2019-05-05T00:46:45.025Z,7.95
2019-05-05T00:49:14.517Z,11.18
2019-05-05T00:51:44.352Z,9.23
2019-05-05T00:54:14.858Z,10.78
2019-05-05T00:56:45.004Z,9.40
2019-05-05T00:59:25.284Z,11.75
2019-05-05T01:02:12.481Z,8.15
2019-05-05T01:05:01.287Z,8.63
2019-05-05T01:07:30.423Z,13.53
2019-05-05T01:10:00.943Z,13.45
2019-05-05T01:12:29.962Z,7.90
2019-05-05T01:14:58.946Z,8.28
2019-05-05T01:17:27.879Z,7.05
2019-05-05T01:20:03.159Z,4.37
2019-05-05T01:22:30.399Z,6.70
2019-05-05T01:24:59.322Z,8.65
2019-05-05T01:27:28.255Z,6.45
2019-05-05T01:29:57.399Z,8.55
2019-05-05T01:32:28.120Z,9.00
2019-05-05T01:34:57.034Z,7.67
2019-05-05T01:37:30.487Z,7.92
2019-05-05T01:40:17.543Z,10.75
2019-05-05T01:42:46.522Z,6.50
2019-05-05T01:45:15.551Z,8.55
2019-05-05T01:47:45.281Z,6.60
2019-05-05T01:50:20.606Z,5.35
2019-05-05T01:52:45.179Z,3.12
2019-05-05T01:55:14.646Z,4.78
2019-05-05T01:57:45.048Z,7.62
2019-05-05T02:00:14.834Z,4.60
2019-05-05T02:02:44.858Z,2.98
2019-05-05T02:05:14.859Z,5.45
2019-05-05T02:07:44.863Z,8.25
2019-05-05T02:10:15.342Z,10.48
2019-05-05T02:12:44.804Z,5.28
2019-05-05T02:15:15.043Z,6.72
2019-05-05T02:17:44.656Z,5.20
2019-05-05T02:20:34.268Z,8.93
2019-05-05T02:23:04.684Z,11.63
2019-05-05T02:25:34.572Z,7.10
2019-05-05T02:28:04.441Z,9.08
2019-05-05T02:30:36.021Z,21.23
2019-05-05T02:33:06.755Z,10.90
2019-05-05T02:35:35.703Z,10.63
2019-05-05T02:38:06.616Z,18.20
2019-05-05T02:40:36.212Z,14.40
2019-05-05T02:43:05.635Z,19.87
2019-05-05T02:45:44.274Z,9.88
2019-05-05T02:48:15.455Z,7.95
2019-05-05T02:50:55.916Z,10.20
2019-05-05T02:53:24.723Z,9.93
2019-05-05T02:55:56.271Z,4.37
2019-05-05T02:58:26.456Z,10.05
2019-05-05T03:00:57.224Z,8.20
2019-05-05T03:03:26.449Z,8.55
2019-05-05T03:05:55.551Z,6.75
2019-05-05T03:08:26.192Z,8.85
2019-05-05T03:10:55.952Z,4.33
2019-05-05T03:13:25.712Z,4.33
2019-05-05T03:16:23.718Z,11.55
2019-05-05T03:18:54.504Z,5.37
2019-05-05T03:21:24.304Z,10.80
2019-05-05T03:23:54.793Z,8.33
2019-05-05T03:26:24.815Z,5.83
2019-05-05T03:29:01.154Z,10.20
2019-05-05T03:31:30.136Z,6.75
2019-05-05T03:33:59.195Z,6.83
2019-05-05T03:36:28.537Z,8.75
2019-05-05T03:38:57.727Z,7.30
2019-05-05T03:41:29.287Z,7.35
2019-05-05T03:44:08.919Z,14.73
2019-05-05T03:46:37.975Z,13.35
2019-05-05T03:49:06.960Z,6.35
2019-05-05T03:51:35.951Z,9.10
2019-05-05T03:54:05.232Z,9.88
2019-05-05T03:56:34.845Z,7.42
2019-05-05T03:59:04.879Z,8.35
2019-05-05T04:01:48.951Z,16.05
2019-05-05T04:04:28.591Z,16.87
2019-05-05T04:06:58.263Z,12.03
2019-05-05T04:09:27.305Z,7.37
2019-05-05T04:11:56.352Z,10.85
2019-05-05T04:14:25.424Z,8.93
2019-05-05T04:17:10.935Z,7.22
2019-05-05T04:19:44.556Z,8.85
2019-05-05T04:22:25.631Z,10.82
2019-05-05T04:24:54.679Z,6.42
2019-05-05T04:27:23.971Z,8.95
2019-05-05T04:29:54.476Z,8.80
2019-05-05T04:32:24.445Z,7.03
2019-05-05T04:34:54.583Z,16.60
2019-05-05T04:37:24.044Z,9.23
2019-05-05T04:39:53.863Z,10.58
2019-05-05T04:42:24.544Z,9.43
2019-05-05T04:44:53.897Z,14.38
2019-05-05T04:47:24.906Z,11.25
2019-05-05T04:49:55.647Z,14.03
2019-05-05T04:52:29.208Z,10.45
2019-05-05T04:54:58.175Z,9.00
2019-05-05T04:57:27.279Z,9.78
2019-05-05T04:59:56.375Z,10.28
2019-05-05T05:02:29.783Z,9.40
2019-05-05T05:05:04.088Z,12.73
2019-05-05T05:07:34.490Z,8.38
2019-05-05T05:10:05.207Z,11.73
2019-05-05T05:12:34.324Z,8.00
2019-05-05T05:15:04.430Z,6.67
2019-05-05T05:17:40.743Z,6.40
2019-05-05T05:20:10.152Z,7.62
2019-05-05T05:22:39.096Z,7.37
2019-05-05T05:25:08.208Z,11.43
2019-05-05T05:27:37.321Z,10.93
2019-05-05T05:30:07.591Z,7.67
2019-05-05T05:32:39.600Z,12.53
2019-05-05T05:35:07.647Z,15.95
2019-05-05T05:37:36.824Z,9.85
2019-05-05T05:40:08.588Z,8.73
2019-05-05T05:42:37.751Z,9.68
2019-05-05T05:45:15.081Z,8.08
2019-05-05T05:48:01.080Z,6.55
2019-05-05T05:50:40.519Z,6.45
2019-05-05T05:53:09.647Z,9.65
2019-05-05T05:55:40.401Z,5.12
2019-05-05T05:58:10.991Z,9.85
2019-05-05T06:00:41.675Z,6.15
2019-05-05T06:03:11.111Z,6.92
2019-05-05T06:05:39.999Z,7.60
2019-05-05T06:08:09.070Z,5.42
2019-05-05T06:10:38.049Z,10.20
2019-05-05T06:13:08.735Z,10.80
2019-05-05T06:15:37.783Z,9.95
2019-05-05T06:18:07.017Z,11.12
2019-05-05T06:20:36.063Z,7.40
2019-05-05T06:23:05.492Z,4.83
2019-05-05T06:25:38.218Z,9.80
2019-05-05T06:28:07.294Z,6.80
2019-05-05T06:30:36.552Z,7.47
2019-05-05T06:33:05.727Z,6.20
2019-05-05T06:35:35.207Z,8.60
2019-05-05T06:38:04.808Z,10.18
2019-05-05T06:40:54.000Z,4.58
2019-05-05T06:43:40.994Z,7.85
2019-05-05T06:46:11.600Z,7.00
2019-05-05T06:48:40.864Z,6.17
2019-05-05T06:51:09.927Z,8.23
2019-05-05T06:53:38.895Z,6.95
2019-05-05T06:56:08.123Z,5.87
2019-05-05T06:58:37.375Z,10.55
2019-05-05T07:01:06.639Z,5.55
2019-05-05T07:03:36.023Z,7.40
2019-05-05T07:06:05.552Z,6.20
2019-05-05T07:08:34.818Z,7.03
2019-05-05T07:11:04.181Z,6.05
2019-05-05T07:13:33.932Z,6.05
2019-05-05T07:16:04.867Z,4.85
2019-05-05T07:18:34.218Z,4.25
2019-05-05T07:21:03.818Z,9.13
2019-05-05T07:23:34.136Z,9.53
2019-05-05T07:26:04.183Z,5.08
2019-05-05T07:28:34.225Z,6.35
2019-05-05T07:31:04.498Z,4.47
2019-05-05T07:33:34.587Z,4.78
2019-05-05T07:36:06.202Z,7.60
2019-05-05T07:38:35.226Z,5.47
2019-05-05T07:41:04.167Z,6.67
2019-05-05T07:43:34.488Z,6.80
2019-05-05T07:46:04.447Z,4.03
2019-05-05T07:48:36.264Z,10.28
2019-05-05T07:51:05.475Z,7.33
2019-05-05T07:53:34.569Z,7.97
2019-05-05T07:56:07.423Z,7.17
2019-05-05T07:58:34.915Z,6.17
2019-05-05T08:01:04.610Z,5.90
2019-05-05T08:03:34.096Z,5.37
2019-05-05T08:06:03.954Z,11.65
2019-05-05T08:08:33.557Z,6.20
2019-05-05T08:11:04.630Z,10.68
2019-05-05T08:13:33.676Z,8.93
2019-05-05T08:16:19.511Z,3.90
2019-05-05T08:19:05.593Z,6.30
2019-05-05T08:21:34.795Z,4.20
2019-05-05T08:24:11.569Z,5.15
2019-05-05T08:26:45.083Z,9.28
2019-05-05T08:29:34.668Z,6.37
2019-05-05T08:32:08.122Z,5.72
2019-05-05T08:34:37.145Z,11.70
2019-05-05T08:37:06.120Z,6.87
2019-05-05T08:39:35.087Z,6.92
2019-05-05T08:42:04.396Z,8.60
2019-05-05T08:44:34.318Z,3.67
2019-05-05T08:47:04.429Z,6.60
2019-05-05T08:49:34.732Z,10.10
2019-05-05T08:52:04.219Z,5.85
2019-05-05T08:54:34.421Z,10.48
2019-05-05T08:57:04.265Z,5.03
2019-05-05T08:59:33.825Z,7.28
2019-05-05T09:02:04.484Z,7.42
2019-05-05T09:04:34.070Z,5.65
2019-05-05T09:07:05.070Z,7.35
2019-05-05T09:09:34.457Z,4.90
2019-05-05T09:12:04.581Z,5.53
2019-05-05T09:14:34.597Z,5.95
2019-05-05T09:17:04.481Z,3.95
2019-05-05T09:19:34.481Z,4.25
2019-05-05T09:22:06.756Z,6.05
2019-05-05T09:24:41.919Z,8.43
2019-05-05T09:27:21.439Z,5.58
2019-05-05T09:29:50.407Z,5.67
2019-05-05T09:32:19.665Z,5.10
2019-05-05T09:34:48.655Z,7.65
2019-05-05T09:37:17.879Z,5.03
2019-05-05T09:39:47.312Z,10.45
2019-05-05T09:42:19.369Z,4.85
2019-05-05T09:44:48.978Z,6.40
2019-05-05T09:47:18.841Z,4.05
2019-05-05T09:49:50.161Z,3.37
2019-05-05T09:52:19.151Z,4.53
2019-05-05T09:54:49.015Z,6.87
2019-05-05T09:57:18.259Z,6.47
2019-05-05T09:59:47.428Z,6.47
2019-05-05T10:02:16.390Z,8.40
2019-05-05T10:04:46.072Z,8.33
2019-05-05T10:07:15.945Z,7.95
2019-05-05T10:09:45.585Z,4.15
2019-05-05T10:12:15.015Z,9.08
2019-05-05T10:14:44.965Z,5.22
2019-05-05T10:17:17.081Z,7.20
2019-05-05T10:19:46.480Z,10.08
2019-05-05T10:22:15.513Z,3.90
2019-05-05T10:24:46.289Z,8.08
2019-05-05T10:27:15.463Z,7.70
2019-05-05T10:29:44.552Z,7.78
2019-05-05T10:32:13.881Z,5.80
2019-05-05T10:34:43.946Z,7.53
2019-05-05T10:37:14.224Z,6.50
2019-05-05T10:39:54.351Z,3.90
2019-05-05T10:42:25.211Z,8.90
2019-05-05T10:44:54.209Z,3.85
2019-05-05T10:47:24.192Z,6.37
2019-05-05T10:49:54.482Z,4.33
2019-05-05T10:52:23.881Z,6.60
2019-05-05T10:54:54.858Z,4.85
2019-05-05T10:57:24.340Z,11.20
2019-05-05T10:59:53.981Z,7.53
2019-05-05T11:02:24.164Z,7.00
2019-05-05T11:04:54.588Z,6.80
2019-05-05T11:07:24.051Z,5.45
2019-05-05T11:09:53.511Z,5.97
2019-05-05T11:12:24.576Z,4.55
2019-05-05T11:14:54.508Z,4.83
2019-05-05T11:17:24.759Z,6.35
2019-05-05T11:19:54.273Z,6.55
2019-05-05T11:22:24.221Z,6.87
2019-05-05T11:24:59.951Z,9.73
2019-05-05T11:27:24.210Z,11.70
2019-05-05T11:29:58.466Z,5.60
2019-05-05T11:32:45.335Z,5.50
2019-05-05T11:35:14.415Z,5.72
2019-05-05T11:37:43.866Z,3.40
2019-05-05T11:40:14.175Z,8.30
2019-05-05T11:42:43.303Z,7.75
2019-05-05T11:45:14.864Z,5.87
2019-05-05T11:47:44.398Z,9.18
2019-05-05T11:50:13.780Z,7.87
2019-05-05T11:52:44.417Z,8.30
2019-05-05T11:55:14.977Z,4.70
2019-05-05T11:57:45.480Z,5.30
2019-05-05T12:00:15.935Z,7.85
2019-05-05T12:02:44.964Z,7.25
2019-05-05T12:05:14.320Z,3.52
2019-05-05T12:07:43.788Z,6.28
2019-05-05T12:10:29.895Z,8.63
2019-05-05T12:13:00.887Z,6.60
2019-05-05T12:15:30.088Z,6.78
2019-05-05T12:17:59.137Z,6.60
2019-05-05T12:20:38.914Z,9.50
2019-05-05T12:23:08.328Z,9.08
2019-05-05T12:25:54.981Z,11.22
2019-05-05T12:28:40.623Z,7.67
2019-05-05T12:31:29.744Z,6.22
2019-05-05T12:33:58.945Z,10.43
2019-05-05T12:36:28.388Z,7.25
2019-05-05T12:38:57.447Z,9.33
2019-05-05T12:41:28.127Z,6.08
2019-05-05T12:43:57.247Z,10.48
2019-05-05T12:46:28.252Z,9.43
2019-05-05T12:48:58.983Z,10.00
2019-05-05T12:51:28.207Z,6.92
2019-05-05T12:53:57.207Z,6.75
2019-05-05T12:56:26.447Z,5.53
2019-05-05T12:58:55.648Z,5.40
2019-05-05T13:01:26.288Z,9.15
2019-05-05T13:03:55.583Z,6.10
2019-05-05T13:06:25.152Z,6.17
2019-05-05T13:08:54.375Z,9.55
2019-05-05T13:11:24.897Z,5.83
2019-05-05T13:13:54.658Z,11.40
2019-05-05T13:16:26.519Z,9.65
2019-05-05T13:18:55.688Z,6.10
2019-05-05T13:21:37.975Z,5.40
2019-05-05T13:24:17.945Z,12.50
2019-05-05T13:26:51.576Z,7.45
2019-05-05T13:29:20.553Z,12.50
2019-05-05T13:31:49.511Z,6.37
2019-05-05T13:34:20.663Z,6.70
2019-05-05T13:36:49.584Z,10.08
2019-05-05T13:39:18.544Z,5.90
2019-05-05T13:41:47.771Z,5.62
2019-05-05T13:44:26.560Z,9.10
2019-05-05T13:46:55.441Z,6.47
2019-05-05T13:49:38.056Z,11.45
2019-05-05T13:52:07.143Z,5.08
2019-05-05T13:54:36.136Z,5.37
2019-05-05T13:57:05.336Z,7.05
2019-05-05T13:59:34.400Z,5.75
2019-05-05T14:02:03.785Z,5.35
2019-05-05T14:04:34.378Z,6.70
2019-05-05T14:07:04.177Z,8.08
2019-05-05T14:09:33.311Z,6.33
2019-05-05T14:12:04.116Z,6.72
2019-05-05T14:14:33.665Z,5.90
2019-05-05T14:17:04.135Z,6.00
2019-05-05T14:19:34.092Z,6.45
2019-05-05T14:22:04.523Z,11.93
2019-05-05T14:24:45.496Z,4.17
2019-05-05T14:27:14.785Z,5.08
2019-05-05T14:29:54.744Z,5.75
2019-05-05T14:32:28.223Z,2.95
2019-05-05T14:35:07.992Z,2.42
2019-05-05T14:37:38.892Z,2.92
2019-05-05T14:40:08.592Z,3.08
2019-05-05T14:42:37.521Z,5.20
2019-05-05T14:45:07.728Z,7.47
2019-05-05T14:47:37.671Z,5.35
2019-05-05T14:50:06.952Z,4.97
2019-05-05T14:52:37.640Z,4.20
2019-05-05T14:55:08.248Z,4.25
2019-05-05T14:57:38.207Z,5.30
2019-05-05T15:00:11.368Z,5.33
2019-05-05T15:02:43.763Z,3.77
2019-05-05T15:05:20.311Z,5.30
2019-05-05T15:07:57.008Z,6.53
2019-05-05T15:10:44.132Z,2.62
2019-05-05T15:13:14.808Z,8.18
2019-05-05T15:15:44.600Z,2.95
2019-05-05T15:18:14.626Z,6.28
2019-05-05T15:20:44.578Z,9.40
2019-05-05T15:23:14.034Z,5.55
2019-05-05T15:25:44.623Z,10.82
2019-05-05T15:28:13.926Z,15.10
2019-05-05T15:30:44.106Z,5.08
2019-05-05T15:33:13.902Z,13.45
2019-05-05T15:35:46.326Z,7.83
2019-05-05T15:38:14.584Z,5.15
2019-05-05T15:40:44.967Z,7.53
2019-05-05T15:43:14.736Z,11.10
2019-05-05T15:45:44.129Z,8.48
2019-05-05T15:48:14.085Z,8.65
2019-05-05T15:50:43.930Z,7.03
2019-05-05T15:53:16.680Z,12.20
2019-05-05T15:55:47.360Z,9.48
2019-05-05T15:58:16.692Z,10.72
2019-05-05T16:00:45.896Z,18.27
2019-05-05T16:03:15.568Z,14.00
2019-05-05T16:05:44.512Z,20.30
2019-05-05T16:08:14.145Z,13.40
2019-05-05T16:10:46.197Z,21.85
2019-05-05T16:13:16.528Z,14.15
2019-05-05T16:15:47.281Z,18.27
2019-05-05T16:18:24.343Z,15.48
2019-05-05T16:20:55.209Z,18.67
2019-05-05T16:23:44.343Z,22.87
2019-05-05T16:26:14.009Z,18.32
2019-05-05T16:28:44.555Z,12.55
2019-05-05T16:31:15.617Z,14.70
2019-05-05T16:33:44.999Z,18.23
2019-05-05T16:36:14.024Z,22.77
2019-05-05T16:38:43.598Z,11.78
2019-05-05T16:41:15.346Z,16.02
2019-05-05T16:43:44.327Z,28.42
2019-05-05T16:46:16.734Z,15.95
2019-05-05T16:48:45.960Z,20.23
2019-05-05T16:51:17.032Z,13.30
2019-05-05T16:53:46.376Z,20.65
2019-05-05T16:56:17.236Z,19.55
2019-05-05T16:58:46.273Z,16.50
2019-05-05T17:01:19.561Z,12.73
2019-05-05T17:03:49.027Z,15.53
2019-05-05T17:06:18.343Z,9.25
2019-05-05T17:08:47.512Z,21.02
2019-05-05T17:11:16.680Z,14.13
2019-05-05T17:13:56.728Z,17.07
2019-05-05T17:16:35.321Z,13.75
2019-05-05T17:19:15.073Z,18.57
2019-05-05T17:21:55.195Z,19.45
2019-05-05T17:24:24.089Z,21.00
2019-05-05T17:26:54.883Z,16.02
2019-05-05T17:29:24.017Z,20.72
2019-05-05T17:31:53.972Z,26.23
2019-05-05T17:34:24.740Z,16.80
2019-05-05T17:36:54.176Z,18.05
2019-05-05T17:39:25.505Z,20.75
2019-05-05T17:41:56.401Z,16.00
2019-05-05T17:44:36.149Z,19.87
2019-05-05T17:47:06.793Z,15.48
2019-05-05T17:49:37.416Z,15.70
2019-05-05T17:52:11.490Z,18.77
2019-05-05T17:54:44.259Z,15.60
2019-05-05T17:57:14.234Z,20.35
2019-05-05T17:59:44.202Z,22.73
2019-05-05T18:02:15.312Z,21.23
2019-05-05T18:04:45.321Z,29.00
2019-05-05T18:07:17.543Z,21.65
2019-05-05T18:10:06.272Z,26.45
2019-05-05T18:12:44.559Z,18.23
2019-05-05T18:15:33.993Z,23.73
2019-05-05T18:18:06.738Z,15.18
2019-05-05T18:20:36.120Z,30.00
2019-05-05T18:23:05.698Z,17.35
2019-05-05T18:25:34.985Z,14.95
2019-05-05T18:28:16.296Z,20.30
2019-05-05T18:30:36.325Z,13.78
2019-05-05T18:33:06.073Z,18.45
2019-05-05T18:35:36.305Z,12.78
2019-05-05T18:38:07.823Z,23.40
2019-05-05T18:40:38.512Z,16.12
2019-05-05T18:43:09.264Z,11.22
2019-05-05T18:45:39.081Z,16.75
2019-05-05T18:48:08.599Z,18.35
2019-05-05T18:50:38.279Z,18.17
2019-05-05T18:53:07.689Z,17.30
2019-05-05T18:55:37.088Z,29.45
2019-05-05T18:58:08.576Z,19.52
2019-05-05T19:00:46.135Z,23.42
2019-05-05T19:03:20.713Z,15.35
2019-05-05T19:05:50.872Z,19.77
2019-05-05T19:08:24.593Z,22.55
2019-05-05T19:10:54.489Z,24.95
2019-05-05T19:13:24.398Z,18.20
2019-05-05T19:15:54.128Z,23.98
2019-05-05T19:18:24.483Z,25.20
2019-05-05T19:20:59.151Z,18.98
2019-05-05T19:23:28.923Z,17.67
2019-05-05T19:25:58.200Z,25.32
2019-05-05T19:28:40.986Z,19.95
2019-05-05T19:30:58.241Z,16.27
2019-05-05T19:33:27.289Z,17.70
2019-05-05T19:35:56.512Z,26.68
2019-05-05T19:38:25.960Z,21.02
2019-05-05T19:40:56.357Z,27.52
2019-05-05T19:43:25.488Z,16.95
2019-05-05T19:45:55.208Z,16.37
2019-05-05T19:48:24.607Z,15.68
2019-05-05T19:50:55.656Z,18.87
2019-05-05T19:53:26.983Z,20.72
2019-05-05T19:55:56.768Z,15.58
2019-05-05T19:58:28.612Z,17.05
2019-05-05T20:00:59.649Z,20.55
2019-05-05T20:03:30.013Z,15.40
2019-05-05T20:05:59.312Z,18.27
2019-05-05T20:08:39.793Z,13.75
2019-05-05T20:10:59.506Z,10.20
2019-05-05T20:13:29.464Z,16.87
2019-05-05T20:16:07.851Z,14.90
2019-05-05T20:18:37.250Z,18.17
2019-05-05T20:21:07.396Z,11.73
2019-05-05T20:23:37.265Z,14.73
2019-05-05T20:26:06.522Z,16.48
2019-05-05T20:28:36.104Z,18.52
2019-05-05T20:31:05.552Z,9.35
2019-05-05T20:33:36.359Z,14.90
2019-05-05T20:36:14.548Z,14.55
2019-05-05T20:38:45.616Z,18.25
2019-05-05T20:41:16.432Z,17.00
2019-05-05T20:43:47.600Z,15.50
2019-05-05T20:46:16.896Z,16.60
2019-05-05T20:48:46.388Z,12.33
2019-05-05T20:51:15.977Z,17.92
2019-05-05T20:53:48.595Z,10.80
2019-05-05T20:56:15.976Z,10.23
2019-05-05T20:58:45.927Z,6.97
2019-05-05T21:01:15.839Z,11.60
2019-05-05T21:03:45.649Z,15.48
2019-05-05T21:06:14.889Z,10.20
2019-05-05T21:08:44.368Z,28.38
2019-05-05T21:11:14.195Z,12.88
2019-05-05T21:13:45.190Z,11.08
2019-05-05T21:16:14.821Z,13.58
2019-05-05T21:18:44.257Z,6.35
2019-05-05T21:21:15.401Z,13.08
2019-05-05T21:23:46.610Z,13.45
2019-05-05T21:26:21.145Z,18.32
2019-05-05T21:28:53.686Z,12.65
2019-05-05T21:31:23.967Z,18.87
2019-05-05T21:33:54.893Z,9.43
2019-05-05T21:36:33.641Z,19.75
2019-05-05T21:39:04.038Z,9.28
2019-05-05T21:41:34.811Z,10.50
2019-05-05T21:44:07.111Z,9.18
2019-05-05T21:46:36.784Z,6.15
2019-05-05T21:49:06.440Z,7.90
2019-05-05T21:51:46.456Z,8.25
2019-05-05T21:54:26.376Z,11.70
2019-05-05T21:57:06.370Z,11.90
2019-05-05T21:59:35.983Z,8.58
2019-05-05T22:02:05.633Z,19.12
2019-05-05T22:04:35.239Z,12.98
2019-05-05T22:07:04.432Z,13.78
2019-05-05T22:09:33.711Z,10.78
2019-05-05T22:12:04.161Z,11.18
2019-05-05T22:14:34.126Z,15.48
2019-05-05T22:17:04.104Z,12.43
2019-05-05T22:19:35.420Z,18.32
2019-05-05T22:22:06.450Z,13.03
2019-05-05T22:24:35.862Z,11.55
2019-05-05T22:27:05.248Z,17.32
2019-05-05T22:29:34.384Z,10.18
2019-05-05T22:32:05.999Z,12.35
2019-05-05T22:34:34.080Z,9.68
2019-05-05T22:37:05.748Z,13.48
2019-05-05T22:39:33.924Z,10.18
2019-05-05T22:42:04.694Z,16.52
2019-05-05T22:44:34.022Z,14.75
2019-05-05T22:47:04.628Z,18.87
2019-05-05T22:49:33.703Z,10.93
2019-05-05T22:52:03.838Z,15.60
2019-05-05T22:54:33.610Z,12.43
2019-05-05T22:57:04.621Z,14.40
2019-05-05T22:59:33.704Z,11.33
2019-05-05T23:02:03.992Z,8.48
2019-05-05T23:04:51.200Z,12.20
2019-05-05T23:07:24.711Z,11.55
2019-05-05T23:09:53.951Z,12.93
2019-05-05T23:12:24.363Z,10.43
2019-05-05T23:14:54.524Z,17.55
2019-05-05T23:17:26.482Z,16.32
2019-05-05T23:20:16.290Z,15.40
2019-05-05T23:22:54.819Z,18.50
2019-05-05T23:25:35.041Z,14.93
2019-05-05T23:28:04.616Z,10.00
2019-05-05T23:30:41.561Z,17.67
2019-05-05T23:33:04.503Z,20.45
2019-05-05T23:35:34.428Z,13.35
2019-05-05T23:38:03.835Z,5.95
2019-05-05T23:40:33.946Z,5.83
2019-05-05T23:43:04.523Z,12.25
2019-05-05T23:45:34.148Z,7.58
2019-05-05T23:48:03.726Z,9.43
2019-05-05T23:50:33.801Z,7.72
2019-05-05T23:53:03.175Z,10.68
2019-05-05T23:55:34.261Z,9.03
2019-05-05T23:58:03.809Z,11.05
